Time;durP1;ratioP1;P1;durP2;ratioP2;P2;SDS_P1;SDS_P2;PMS_P1;PMS_P2;Temp;Humidity;BMP_temperature;BMP_pressure;BME280_temperature;BME280_humidity;BME280_pressure;Samples;Min_cycle;Max_cycle;Signal;HPM_P1;HPM_P2
2022/08/14 00:02:20;;;;;;;0.37;0.30;;;;;;;19.89;100.00;101200.19;10412005;28;20076;-78
2022/08/14 00:07:24;;;;;;;0.15;0.10;;;;;;;19.69;100.00;101194.22;10409645;28;20052;-79
2022/08/14 00:12:27;;;;;;;0.30;0.30;;;;;;;19.27;100.00;101192.72;10410037;28;20049;-79
2022/08/14 00:17:39;;;;;;;0.35;0.22;;;;;;;19.13;100.00;101190.22;10407462;28;20045;-79
2022/08/14 00:22:53;;;;;;;0.30;0.20;;;;;;;18.87;100.00;101190.28;10394520;28;20440;-78
2022/08/14 00:27:58;;;;;;;1.17;0.20;;;;;;;18.74;100.00;101188.59;10411348;28;20145;-78
2022/08/14 00:33:03;;;;;;;0.35;0.30;;;;;;;18.35;100.00;101181.75;10398745;28;20111;-78
2022/08/14 00:38:17;;;;;;;0.73;0.70;;;;;;;18.67;100.00;101175.56;10398055;28;20048;-78
2022/08/14 00:43:19;;;;;;;1.23;0.95;;;;;;;18.70;100.00;101178.16;10405685;28;20167;-78
2022/08/14 00:48:21;;;;;;;0.68;0.50;;;;;;;18.35;100.00;101176.53;10396436;28;20053;-78
2022/08/14 00:53:38;;;;;;;0.40;0.32;;;;;;;18.06;100.00;101179.16;10401002;28;20501;-77
2022/08/14 00:58:45;;;;;;;1.20;0.50;;;;;;;18.42;100.00;101166.09;10402405;28;20041;-78
2022/08/14 01:03:51;;;;;;;2.63;1.27;;;;;;;18.41;100.00;101164.34;10407184;28;20048;-78
2022/08/14 01:08:54;;;;;;;1.23;0.80;;;;;;;18.45;100.00;101163.44;10405096;28;20497;-77
2022/08/14 01:14:00;;;;;;;1.35;0.73;;;;;;;17.60;100.00;101178.25;10402947;28;20465;-77
2022/08/14 01:24:44;;;;;;;1.20;0.80;;;;;;;18.16;100.00;101139.19;10401090;28;20077;-77
2022/08/14 01:29:51;;;;;;;2.50;0.75;;;;;;;18.18;100.00;101139.19;10400141;28;20440;-78
2022/08/14 01:35:06;;;;;;;2.28;1.35;;;;;;;18.10;100.00;101133.97;10388038;28;20045;-78
2022/08/14 01:40:29;;;;;;;0.40;0.40;;;;;;;17.67;100.00;101145.28;10406550;28;20053;-79
2022/08/14 01:45:43;;;;;;;1.50;0.88;;;;;;;17.36;100.00;101144.34;10415800;28;20045;-78
2022/08/14 01:51:02;;;;;;;0.77;0.55;;;;;;;17.38;100.00;101146.13;10424714;28;20111;-78
2022/08/14 01:56:05;;;;;;;0.85;0.82;;;;;;;17.41;100.00;101127.88;10411073;28;20037;-77
2022/08/14 02:01:19;;;;;;;1.35;0.93;;;;;;;17.54;100.00;101118.34;10414309;28;20060;-78
2022/08/14 02:06:28;;;;;;;0.50;0.43;;;;;;;17.69;100.00;101112.25;10410291;28;20793;-78
2022/08/14 02:11:34;;;;;;;1.90;0.77;;;;;;;17.60;100.00;101112.28;10427208;28;20049;-78
2022/08/14 02:16:44;;;;;;;2.05;1.08;;;;;;;16.94;100.00;101119.09;10411408;28;20489;-78
2022/08/14 02:21:49;;;;;;;1.50;1.02;;;;;;;17.29;100.00;101101.84;10412298;28;20083;-78
2022/08/14 02:26:52;;;;;;;0.47;0.43;;;;;;;17.20;100.00;101099.22;10407565;28;20088;-78
2022/08/14 02:32:15;;;;;;;0.43;0.43;;;;;;;17.37;100.00;101097.50;10414020;28;20045;-79
2022/08/14 02:37:32;;;;;;;0.63;0.60;;;;;;;17.07;100.00;101098.31;10400420;28;20041;-79
2022/08/14 02:42:49;;;;;;;0.40;0.38;;;;;;;17.12;100.00;101088.78;10411896;28;20052;-78
2022/08/14 02:48:06;;;;;;;1.58;0.93;;;;;;;17.02;100.00;101093.09;10412787;28;20053;-78
2022/08/14 02:53:29;;;;;;;1.13;0.50;;;;;;;16.88;100.00;101087.84;10406311;28;20053;-78
2022/08/14 02:58:37;;;;;;;0.75;0.60;;;;;;;16.53;100.00;101098.97;10420881;28;20029;-80
2022/08/14 03:03:44;;;;;;;0.70;0.57;;;;;;;16.74;100.00;101106.00;10411421;28;20073;-79
2022/08/14 03:08:47;;;;;;;0.95;0.50;;;;;;;16.53;100.00;101098.09;10411673;28;20449;-79
2022/08/14 03:13:50;;;;;;;0.10;0.10;;;;;;;16.58;100.00;101097.28;10408828;28;20091;-78
2022/08/14 03:18:57;;;;;;;0.20;0.15;;;;;;;16.44;100.00;101093.75;10411312;28;20111;-79
2022/08/14 03:24:10;;;;;;;0.60;0.40;;;;;;;16.44;100.00;101131.00;10412908;28;20060;-78
2022/08/14 03:29:22;;;;;;;0.47;0.45;;;;;;;15.75;100.00;101133.97;10405433;28;20045;-79
2022/08/14 03:34:27;;;;;;;0.63;0.38;;;;;;;15.89;100.00;101130.66;10408507;28;20045;-78
2022/08/14 03:39:48;;;;;;;2.80;0.88;;;;;;;16.12;100.00;101116.06;10400765;28;20539;-78
2022/08/14 03:44:51;;;;;;;1.38;0.77;;;;;;;15.94;100.00;101118.56;10405617;28;20132;-78
2022/08/14 03:50:13;;;;;;;1.70;0.50;;;;;;;15.90;100.00;101127.22;10391508;28;20392;-78
2022/08/14 03:55:28;;;;;;;1.98;0.17;;;;;;;15.96;100.00;101127.25;10407443;28;20045;-78
2022/08/14 04:00:31;;;;;;;0.90;0.70;;;;;;;15.60;100.00;101121.75;10409437;28;20516;-79
2022/08/14 04:05:44;;;;;;;1.25;0.82;;;;;;;15.53;100.00;101118.22;10408667;28;20049;-79
2022/08/14 04:10:49;;;;;;;2.05;0.73;;;;;;;15.63;100.00;101133.88;10407499;28;20115;-78
2022/08/14 04:15:53;;;;;;;0.68;0.40;;;;;;;15.51;100.00;101130.31;10407903;28;20115;-78
2022/08/14 04:21:02;;;;;;;1.13;0.57;;;;;;;15.62;100.00;101143.41;10402580;28;21523;-79
2022/08/14 04:26:07;;;;;;;0.98;0.65;;;;;;;15.72;100.00;101133.97;10404764;28;20292;-79
2022/08/14 04:31:27;;;;;;;1.33;0.77;;;;;;;15.57;100.00;101128.63;10408428;28;20085;-79
2022/08/14 04:52:55;;;;;;;2.58;0.88;;;;;;;16.22;100.00;101118.75;10404429;28;20496;-79
2022/08/14 04:57:58;;;;;;;0.25;0.22;;;;;;;16.02;100.00;101111.69;10398913;28;20501;-79
2022/08/14 05:03:02;;;;;;;2.33;0.75;;;;;;;16.31;100.00;101103.19;10401910;28;20060;-79
2022/08/14 05:08:11;;;;;;;1.00;0.65;;;;;;;16.53;100.00;101103.31;10399561;28;20069;-79
2022/08/14 05:13:35;;;;;;;1.52;1.23;;;;;;;17.00;100.00;101102.66;10403919;28;20053;-78
2022/08/14 05:18:57;;;;;;;0.73;0.68;;;;;;;17.24;100.00;101085.31;10399837;28;20048;-80
2022/08/14 05:24:19;;;;;;;0.95;0.77;;;;;;;17.62;100.00;101057.56;10406068;28;20404;-79
2022/08/14 05:29:22;;;;;;;0.73;0.60;;;;;;;17.95;100.00;101053.13;10397184;28;20140;-79
2022/08/14 05:34:28;;;;;;;3.28;1.88;;;;;;;18.18;100.00;101047.91;10409405;28;20460;-79
2022/08/14 05:39:32;;;;;;;2.20;0.73;;;;;;;18.54;100.00;101049.47;10403204;28;20100;-78
2022/08/14 05:44:34;;;;;;;0.30;0.30;;;;;;;18.67;100.00;101041.63;10390321;28;20407;-79
2022/08/14 05:49:36;;;;;;;1.95;0.73;;;;;;;19.00;100.00;101035.34;10405039;28;20034;-78
2022/08/14 05:54:38;;;;;;;1.40;1.15;;;;;;;19.27;100.00;101016.88;10401850;28;20111;-79
2022/08/14 05:59:40;;;;;;;0.45;0.45;;;;;;;19.56;100.00;101018.34;10398554;28;20045;-78
2022/08/14 06:04:47;;;;;;;0.25;0.17;;;;;;;19.70;100.00;101008.63;10404243;28;20041;-76
2022/08/14 06:11:03;;;;;;;;;;;;;;;;;;;;;
2022/08/14 06:16:54;;;;;;;0.50;0.50;;;;;;;20.37;100.00;100997.41;10280004;28;20043;-77
2022/08/14 06:21:55;;;;;;;0.75;0.63;;;;;;;20.69;100.00;100999.59;10405785;28;20061;-77
2022/08/14 06:27:00;;;;;;;0.38;0.38;;;;;;;20.89;100.00;100986.19;10411730;28;20044;-77
2022/08/14 06:32:05;;;;;;;2.38;1.58;;;;;;;21.19;100.00;100989.22;10406743;28;20049;-77
2022/08/14 06:37:55;;;;;;;2.15;1.38;;;;;;;21.35;100.00;100988.94;10410875;28;20493;-78
2022/08/14 06:43:00;;;;;;;3.13;1.52;;;;;;;21.83;100.00;100986.34;10412045;28;20507;-78
2022/08/14 06:48:13;;;;;;;0.95;0.85;;;;;;;22.11;100.00;100982.31;10406710;28;20049;-77
2022/08/14 06:53:18;;;;;;;2.30;1.67;;;;;;;22.37;100.00;100983.47;10390487;28;20053;-76
2022/08/14 06:58:20;;;;;;;1.08;0.90;;;;;;;22.65;100.00;100970.63;10412478;28;20060;-78
2022/08/14 07:09:24;;;;;;;2.15;1.23;;;;;;;24.06;100.00;100967.88;10412783;28;20041;-77
2022/08/14 07:14:28;;;;;;;2.10;1.13;;;;;;;24.35;100.00;100963.50;10413341;28;20120;-78
2022/08/14 07:19:29;;;;;;;2.80;1.08;;;;;;;25.09;100.00;100951.50;10411850;28;20041;-77
2022/08/14 07:24:31;;;;;;;3.65;1.15;;;;;;;25.02;100.00;100945.56;10409072;28;20049;-77
2022/08/14 07:29:33;;;;;;;2.33;1.25;;;;;;;25.46;100.00;100948.47;10421955;28;20477;-77
2022/08/14 07:34:34;;;;;;;2.20;1.13;;;;;;;25.66;100.00;100953.00;10408135;28;20049;-76
2022/08/14 07:39:41;;;;;;;3.80;1.52;;;;;;;26.13;100.00;100946.03;10407976;28;20057;-79
2022/08/14 07:44:44;;;;;;;1.27;0.85;;;;;;;26.36;95.03;100939.84;10411519;28;20088;-78
2022/08/14 07:50:19;;;;;;;2.10;1.55;;;;;;;26.48;89.43;100935.84;10407195;28;20074;-78
2022/08/14 07:55:22;;;;;;;1.05;0.95;;;;;;;27.03;87.67;100930.09;10407344;28;20808;-79
2022/08/14 08:00:25;;;;;;;2.88;1.65;;;;;;;27.44;84.14;100931.88;10423690;28;20060;-77
2022/08/14 08:05:32;;;;;;;1.13;0.98;;;;;;;27.60;78.15;100920.59;10405359;28;20049;-79
2022/08/14 08:10:37;;;;;;;2.15;1.02;;;;;;;27.95;78.52;100923.44;10408120;28;20417;-79
2022/08/14 08:16:02;;;;;;;1.08;0.73;;;;;;;28.02;73.37;100916.91;10411524;28;20428;-77
2022/08/14 08:21:04;;;;;;;3.70;1.58;;;;;;;28.16;76.74;100903.03;10411204;28;20073;-76
2022/08/14 08:26:05;;;;;;;0.98;0.88;;;;;;;28.38;73.31;100896.69;10407235;28;20041;-77
2022/08/14 08:31:19;;;;;;;1.42;0.98;;;;;;;28.61;70.57;100898.22;10410929;28;20519;-78
2022/08/14 08:36:21;;;;;;;1.30;0.93;;;;;;;29.20;72.14;100887.28;10400835;28;20550;-78
2022/08/14 08:41:23;;;;;;;1.08;0.85;;;;;;;29.35;72.07;100883.84;10408922;28;20049;-75
2022/08/14 08:46:27;;;;;;;1.20;0.73;;;;;;;29.21;73.99;100886.34;10393725;28;20049;-75
2022/08/14 08:51:34;;;;;;;1.67;1.00;;;;;;;29.12;61.65;100888.53;10387872;28;20046;-77
2022/08/14 08:56:43;;;;;;;1.02;0.90;;;;;;;29.16;65.94;100878.63;10412881;28;20057;-76
2022/08/14 09:01:56;;;;;;;3.77;0.67;;;;;;;29.69;65.50;100882.00;10409482;28;20061;-77
2022/08/14 09:06:59;;;;;;;1.00;0.68;;;;;;;29.25;71.28;100882.56;10388969;28;20048;-76
2022/08/14 09:12:13;;;;;;;0.47;0.47;;;;;;;29.55;62.20;100889.84;10399648;28;20604;-77
2022/08/14 09:17:16;;;;;;;3.47;1.65;;;;;;;29.23;61.71;100895.06;10395636;28;20092;-78
2022/08/14 09:22:21;;;;;;;0.40;0.25;;;;;;;30.04;60.90;100879.22;10397840;28;20437;-76
2022/08/14 09:27:38;;;;;;;0.30;0.30;;;;;;;30.07;63.24;100865.75;10414444;28;20469;-76
2022/08/14 09:33:01;;;;;;;1.67;1.50;;;;;;;30.03;63.90;100864.22;10385720;28;20069;-76
2022/08/14 09:38:32;;;;;;;0.95;0.70;;;;;;;30.57;57.78;100859.41;10393167;28;20033;-77
2022/08/14 09:44:00;;;;;;;0.50;0.38;;;;;;;29.72;53.65;100860.59;10409206;28;20065;-77
2022/08/14 09:49:06;;;;;;;0.32;0.20;;;;;;;30.65;55.27;100855.34;10412297;28;20103;-80
2022/08/14 09:54:17;;;;;;;0.60;0.50;;;;;;;30.43;50.08;100853.09;10401340;28;20095;-77
2022/08/14 09:59:26;;;;;;;0.60;0.57;;;;;;;30.53;58.12;100842.78;10405408;28;20033;-77
2022/08/14 10:04:32;;;;;;;0.55;0.45;;;;;;;30.31;52.59;100825.44;10410973;28;20041;-77
2022/08/14 10:09:48;;;;;;;0.82;0.82;;;;;;;31.32;53.34;100816.75;10423608;28;20080;-78
2022/08/14 10:15:16;;;;;;;0.52;0.50;;;;;;;31.26;48.19;100812.66;10414165;28;20049;-77
2022/08/14 10:20:36;;;;;;;1.08;0.70;;;;;;;31.48;49.72;100800.66;10412408;28;20073;-80
2022/08/14 10:25:45;;;;;;;0.85;0.60;;;;;;;31.24;47.07;100809.22;10405436;28;20046;-77
2022/08/14 10:31:51;;;;;;;0.95;0.75;;;;;;;31.31;47.16;100783.09;10423656;28;20053;-80
2022/08/14 10:44:47;;;;;;;0.40;0.40;;;;;;;31.40;49.32;100766.53;10268781;28;20150;-78
2022/08/14 10:49:58;;;;;;;0.20;0.20;;;;;;;31.48;41.24;100763.38;10326483;28;20057;-78
2022/08/14 10:55:12;;;;;;;1.10;0.68;;;;;;;31.33;46.51;100760.75;10381496;28;20409;-78
2022/08/14 11:00:18;;;;;;;0.50;0.50;;;;;;;31.49;42.38;100762.44;10414485;28;20149;-77
2022/08/14 11:05:25;;;;;;;0.15;0.15;;;;;;;31.39;41.59;100758.66;10412937;28;20111;-77
2022/08/14 11:10:39;;;;;;;0.60;0.50;;;;;;;31.69;44.21;100746.97;10432182;28;20488;-77
2022/08/14 11:15:45;;;;;;;1.75;0.85;;;;;;;31.90;41.59;100745.59;10405927;28;20119;-76
2022/08/14 11:20:58;;;;;;;2.65;0.90;;;;;;;32.21;44.13;100732.84;10420402;28;20045;-76
2022/08/14 11:26:00;;;;;;;0.88;0.73;;;;;;;32.16;40.00;100726.13;10407795;28;20040;-76
2022/08/14 11:31:07;;;;;;;1.00;0.80;;;;;;;31.75;41.25;100727.94;10412865;28;20057;-77
2022/08/14 11:36:10;;;;;;;1.00;0.88;;;;;;;32.00;40.61;100727.16;10416981;28;20047;-77
2022/08/14 11:41:19;;;;;;;0.77;0.52;;;;;;;31.82;40.03;100717.72;10424101;28;20479;-77
2022/08/14 11:46:22;;;;;;;0.63;0.43;;;;;;;32.31;43.07;100697.56;10417071;28;20049;-77
2022/08/14 11:51:31;;;;;;;1.08;0.98;;;;;;;31.42;43.89;100698.09;10431945;28;20050;-76
2022/08/14 11:56:52;;;;;;;0.70;0.60;;;;;;;32.22;41.79;100689.25;10414300;28;20501;-77
2022/08/14 12:01:55;;;;;;;1.13;0.70;;;;;;;32.34;45.11;100708.88;10425330;28;20058;-77
2022/08/14 12:06:59;;;;;;;2.30;0.90;;;;;;;31.90;40.28;100700.28;10416412;28;20041;-76
2022/08/14 12:12:17;;;;;;;0.85;0.75;;;;;;;31.13;45.08;100692.00;10415635;28;20045;-78
2022/08/14 12:17:52;;;;;;;1.23;0.98;;;;;;;32.01;40.60;100686.25;10416836;28;20045;-79
2022/08/14 12:22:59;;;;;;;0.82;0.63;;;;;;;32.18;41.08;100686.88;10416473;28;20048;-75
2022/08/14 12:28:09;;;;;;;1.02;0.75;;;;;;;31.96;39.75;100689.22;10417016;28;20040;-76
2022/08/14 12:33:33;;;;;;;1.88;0.90;;;;;;;32.01;39.06;100688.03;10399242;28;20034;-75
2022/08/14 12:38:36;;;;;;;1.45;1.10;;;;;;;31.66;37.93;100683.28;10411219;28;20041;-76
2022/08/14 12:43:50;;;;;;;2.25;1.10;;;;;;;31.95;41.20;100681.31;10408398;28;20072;-75
2022/08/14 12:48:53;;;;;;;0.80;0.60;;;;;;;31.41;39.22;100666.25;10415769;28;20159;-76
2022/08/14 12:53:56;;;;;;;1.05;0.95;;;;;;;31.59;37.72;100658.84;10414279;28;20489;-75
2022/08/14 12:59:02;;;;;;;2.33;0.90;;;;;;;31.98;37.33;100649.13;10408519;28;20461;-75
2022/08/14 13:04:14;;;;;;;0.35;0.35;;;;;;;32.35;38.89;100630.63;10413713;28;20052;-75
2022/08/14 13:09:16;;;;;;;2.20;1.50;;;;;;;32.12;40.49;100629.56;10413964;28;20038;-74
2022/08/14 13:14:23;;;;;;;4.57;1.38;;;;;;;32.26;39.88;100615.28;10413896;28;20069;-74
2022/08/14 13:19:31;;;;;;;1.45;0.98;;;;;;;31.79;40.08;100601.59;10412829;28;20438;-76
2022/08/14 13:24:33;;;;;;;1.17;0.95;;;;;;;31.99;37.55;100599.38;10413912;28;20237;-78
2022/08/14 13:29:40;;;;;;;2.00;1.08;;;;;;;32.11;37.95;100585.22;10413442;28;20068;-78
2022/08/14 13:34:48;;;;;;;1.92;1.40;;;;;;;31.96;38.77;100572.00;10440321;28;20060;-77
2022/08/14 13:39:54;;;;;;;1.40;1.10;;;;;;;31.87;38.08;100561.13;10422091;28;20080;-76
2022/08/14 13:45:00;;;;;;;1.55;1.25;;;;;;;31.86;37.56;100557.59;10409543;28;20048;-77
2022/08/14 13:50:06;;;;;;;1.23;1.05;;;;;;;31.91;39.91;100544.81;10421587;28;20045;-76
2022/08/14 13:55:08;;;;;;;1.58;1.20;;;;;;;32.13;38.30;100538.00;10420046;28;20412;-77
2022/08/14 14:00:14;;;;;;;2.05;1.38;;;;;;;31.58;39.58;100530.19;10418051;28;20481;-76
2022/08/14 14:05:23;;;;;;;1.88;1.38;;;;;;;32.06;37.28;100529.56;10422306;28;20053;-77
2022/08/14 14:10:26;;;;;;;1.27;1.13;;;;;;;32.16;38.50;100524.44;10420980;28;20148;-76
2022/08/14 14:16:32;;;;;;;1.02;0.93;;;;;;;32.37;42.06;100518.53;10417292;28;20055;-77
2022/08/14 14:21:39;;;;;;;1.17;0.93;;;;;;;31.89;42.87;100519.25;10415779;28;20038;-75
2022/08/14 14:26:48;;;;;;;1.65;1.10;;;;;;;32.18;38.26;100517.19;10418181;28;20038;-75
2022/08/14 14:31:51;;;;;;;0.98;0.70;;;;;;;32.13;44.69;100508.69;10416010;28;20048;-74
2022/08/14 14:36:53;;;;;;;1.00;0.70;;;;;;;31.10;39.69;100513.94;10426948;28;20033;-76
2022/08/14 14:42:00;;;;;;;0.50;0.50;;;;;;;31.07;39.42;100514.13;10421254;28;20042;-75
2022/08/14 14:47:15;;;;;;;0.95;0.85;;;;;;;31.33;38.30;100509.75;10414040;28;20061;-75
2022/08/14 14:52:22;;;;;;;0.45;0.40;;;;;;;31.25;41.26;100504.91;10411407;28;20072;-75
2022/08/14 14:57:29;;;;;;;0.70;0.68;;;;;;;30.51;42.46;100507.97;10419044;28;20038;-75
2022/08/14 15:02:40;;;;;;;0.57;0.50;;;;;;;31.00;43.86;100506.56;10414645;28;20056;-75
2022/08/14 15:07:44;;;;;;;1.02;0.88;;;;;;;30.83;44.32;100490.84;10413789;28;20069;-78
2022/08/14 15:12:47;;;;;;;1.52;0.85;;;;;;;30.64;42.14;100491.22;10403418;28;20050;-75
2022/08/14 15:18:06;;;;;;;0.40;0.40;;;;;;;30.88;42.38;100488.75;10416590;28;20065;-77
2022/08/14 15:23:29;;;;;;;0.30;0.30;;;;;;;30.88;42.75;100487.91;10422814;28;20049;-78
2022/08/14 15:28:45;;;;;;;1.05;0.95;;;;;;;31.18;43.15;100474.38;10432488;28;20073;-75
2022/08/14 15:34:10;;;;;;;4.55;0.70;;;;;;;31.44;39.21;100482.38;10432274;28;20073;-74
2022/08/14 15:39:33;;;;;;;0.63;0.43;;;;;;;31.38;39.70;100470.34;10416772;28;20029;-77
2022/08/14 15:44:39;;;;;;;0.40;0.40;;;;;;;31.55;40.95;100471.84;10394206;28;20132;-76
2022/08/14 15:50:07;;;;;;;0.70;0.70;;;;;;;31.72;39.45;100468.03;10404744;28;20048;-76
2022/08/14 15:55:12;;;;;;;0.88;0.80;;;;;;;31.39;40.45;100471.22;10415195;28;20045;-76
2022/08/14 16:05:49;;;;;;;1.05;0.80;;;;;;;31.56;41.76;100456.72;10411582;28;20493;-76
2022/08/14 16:10:51;;;;;;;0.40;0.40;;;;;;;31.69;39.22;100448.72;10424381;28;20045;-76
2022/08/14 16:15:53;;;;;;;1.88;0.82;;;;;;;31.28;38.70;100443.53;10416394;28;20029;-77
2022/08/14 16:20:57;;;;;;;1.02;0.90;;;;;;;31.24;41.04;100447.34;10416957;28;20053;-76
2022/08/14 16:26:00;;;;;;;0.52;0.52;;;;;;;31.06;38.03;100440.59;10415767;28;20052;-76
2022/08/14 16:31:04;;;;;;;0.35;0.35;;;;;;;31.07;38.09;100434.31;10415225;28;20492;-77
2022/08/14 16:36:22;;;;;;;0.98;0.55;;;;;;;31.01;37.50;100424.94;10410682;28;20046;-76
2022/08/14 16:41:44;;;;;;;1.27;0.28;;;;;;;31.05;40.42;100428.25;10424771;28;20551;-76
2022/08/14 16:46:52;;;;;;;0.63;0.52;;;;;;;30.89;37.40;100426.63;10416220;28;20116;-76
2022/08/14 16:51:58;;;;;;;0.88;0.73;;;;;;;30.88;43.31;100414.28;10415787;28;20038;-76
2022/08/14 16:57:16;;;;;;;0.28;0.25;;;;;;;30.74;44.30;100406.38;10406667;28;20054;-76
2022/08/14 17:02:38;;;;;;;0.30;0.30;;;;;;;30.60;50.91;100402.84;10415322;28;20041;-76
2022/08/14 17:08:03;;;;;;;1.08;0.82;;;;;;;30.25;54.58;100400.69;10409797;28;20056;-77
2022/08/14 17:13:26;;;;;;;1.15;0.93;;;;;;;30.00;53.29;100398.75;10415397;28;20103;-76
2022/08/14 17:18:52;;;;;;;0.65;0.63;;;;;;;29.84;64.38;100386.41;10401320;28;20099;-76
2022/08/14 17:24:04;;;;;;;1.15;0.70;;;;;;;29.80;68.85;100378.75;10414236;28;20428;-76
2022/08/14 17:29:29;;;;;;;1.17;0.88;;;;;;;29.74;66.03;100386.16;10410744;28;20042;-76
2022/08/14 17:34:50;;;;;;;0.75;0.63;;;;;;;29.78;83.48;100377.97;10413494;28;20045;-76
2022/08/14 17:40:11;;;;;;;0.77;0.50;;;;;;;29.64;73.50;100378.88;10385546;28;20049;-76
2022/08/14 17:45:31;;;;;;;0.60;0.60;;;;;;;29.47;74.11;100387.84;10413063;28;20050;-76
2022/08/14 17:50:47;;;;;;;0.40;0.35;;;;;;;29.07;66.41;100397.28;10413037;28;20048;-77
2022/08/14 17:56:02;;;;;;;0.57;0.10;;;;;;;28.64;87.91;100383.88;10414640;28;20049;-76
2022/08/14 18:01:05;;;;;;;0.30;0.30;;;;;;;28.39;89.88;100385.31;10413470;28;20045;-76
2022/08/14 18:06:08;;;;;;;0.13;0.13;;;;;;;28.13;95.53;100386.78;10414300;28;20064;-76
2022/08/14 18:11:30;;;;;;;1.23;0.50;;;;;;;27.68;91.98;100387.41;10410305;28;20092;-75
2022/08/14 18:16:48;;;;;;;0.55;0.22;;;;;;;27.34;98.15;100381.25;10408057;28;20392;-76
2022/08/14 18:21:53;;;;;;;0.57;0.47;;;;;;;26.80;95.70;100385.81;10415249;28;20623;-76
2022/08/14 18:27:05;;;;;;;0.30;0.23;;;;;;;26.62;91.96;100387.56;10419914;28;20037;-75
2022/08/14 18:32:31;;;;;;;0.55;0.52;;;;;;;26.82;86.20;100382.16;10420119;28;20049;-76
2022/08/14 18:37:35;;;;;;;0.63;0.40;;;;;;;26.25;100.00;100379.63;10402096;28;20076;-76
2022/08/14 18:42:37;;;;;;;0.77;0.40;;;;;;;26.28;93.15;100383.00;10420071;28;20033;-76
2022/08/14 18:48:14;;;;;;;0.55;0.38;;;;;;;26.07;100.00;100381.34;10419551;28;20051;-76
2022/08/14 18:53:17;;;;;;;0.10;0.10;;;;;;;25.80;100.00;100379.09;10420090;28;20049;-76
2022/08/14 18:58:47;;;;;;;0.15;0.15;;;;;;;25.55;96.35;100377.56;10411110;28;20061;-76
2022/08/14 19:03:49;;;;;;;0.00;0.00;;;;;;;25.59;97.56;100375.63;10429215;28;20045;-76
2022/08/14 19:08:52;;;;;;;0.28;0.10;;;;;;;25.11;100.00;100386.47;10397873;28;20045;-75
2022/08/14 19:13:54;;;;;;;0.00;0.00;;;;;;;25.10;100.00;100389.19;10410759;28;20095;-75
2022/08/14 19:19:03;;;;;;;0.10;0.10;;;;;;;24.87;100.00;100385.75;10394361;28;20103;-75
2022/08/14 19:24:18;;;;;;;0.63;0.63;;;;;;;24.58;100.00;100387.78;10419218;28;20057;-75
2022/08/14 19:29:33;;;;;;;0.03;0.03;;;;;;;24.06;100.00;100382.81;10409587;28;20474;-75
2022/08/14 19:34:43;;;;;;;0.37;0.20;;;;;;;24.03;100.00;100383.78;10413648;28;20053;-75
2022/08/14 19:39:55;;;;;;;0.55;0.32;;;;;;;23.82;100.00;100379.31;10418394;28;20093;-76
2022/08/14 19:44:56;;;;;;;0.20;0.20;;;;;;;23.49;100.00;100384.91;10428269;28;20053;-78
2022/08/14 19:50:01;;;;;;;0.10;0.10;;;;;;;23.26;100.00;100381.34;10429390;28;20048;-76
2022/08/14 19:55:23;;;;;;;0.45;0.28;;;;;;;22.91;100.00;100388.63;10402173;28;20176;-75
2022/08/14 20:00:35;;;;;;;0.35;0.25;;;;;;;22.81;100.00;100399.47;10417908;28;20061;-76
2022/08/14 20:06:02;;;;;;;0.77;0.52;;;;;;;22.63;100.00;100406.19;10418259;28;20133;-76
2022/08/14 20:11:23;;;;;;;0.22;0.22;;;;;;;22.68;100.00;100398.13;10416473;28;20069;-76
2022/08/14 20:16:57;;;;;;;0.10;0.10;;;;;;;22.39;100.00;100392.03;10414451;28;20038;-77
2022/08/14 20:22:09;;;;;;;0.08;0.08;;;;;;;22.26;100.00;100390.69;10423720;28;20037;-76
2022/08/14 20:27:31;;;;;;;0.43;0.40;;;;;;;22.10;100.00;100393.78;10416546;28;20374;-77
2022/08/14 20:32:51;;;;;;;0.63;0.45;;;;;;;22.20;100.00;100396.97;10406276;28;20049;-77
2022/08/14 20:38:03;;;;;;;0.00;0.00;;;;;;;22.04;100.00;100391.34;10415382;28;20048;-77
2022/08/14 20:48:58;;;;;;;0.57;0.47;;;;;;;21.99;100.00;100398.50;10414934;28;20041;-76
2022/08/14 20:54:03;;;;;;;0.08;0.08;;;;;;;21.91;100.00;100388.22;10416747;28;20041;-77
2022/08/14 20:59:20;;;;;;;0.20;0.20;;;;;;;21.78;100.00;100397.34;10406507;28;20076;-76
2022/08/14 21:04:30;;;;;;;0.10;0.03;;;;;;;21.69;100.00;100391.47;10416054;28;20046;-77
2022/08/14 21:10:01;;;;;;;0.00;0.00;;;;;;;22.00;100.00;100385.34;10415459;28;20037;-77
2022/08/14 21:15:23;;;;;;;0.20;0.10;;;;;;;21.69;100.00;100386.22;10403620;28;20049;-77
2022/08/14 21:20:25;;;;;;;0.00;0.00;;;;;;;21.79;100.00;100384.19;10420721;28;20055;-76
2022/08/14 21:25:30;;;;;;;0.77;0.30;;;;;;;21.46;100.00;100389.47;10415507;28;20041;-76
2022/08/14 21:30:33;;;;;;;0.60;0.43;;;;;;;21.50;100.00;100395.50;10414963;28;20620;-76
2022/08/14 21:35:56;;;;;;;0.10;0.10;;;;;;;21.44;100.00;100398.28;10414038;28;20503;-77
2022/08/14 21:41:26;;;;;;;0.50;0.35;;;;;;;21.31;100.00;100392.50;10411209;28;20069;-76
2022/08/14 21:46:49;;;;;;;0.10;0.10;;;;;;;21.62;100.00;100373.34;10397736;28;20115;-75
2022/08/14 21:51:55;;;;;;;0.77;0.63;;;;;;;21.24;100.00;100387.44;10414007;28;20046;-76
2022/08/14 21:57:20;;;;;;;1.20;0.40;;;;;;;21.27;100.00;100373.41;10418103;28;20042;-77
2022/08/14 22:02:42;;;;;;;0.63;0.20;;;;;;;21.32;100.00;100366.25;10416110;28;20061;-77
2022/08/14 22:07:52;;;;;;;1.55;0.80;;;;;;;21.55;100.00;100352.53;10422482;28;20536;-77
2022/08/14 22:12:56;;;;;;;0.40;0.40;;;;;;;21.38;100.00;100358.22;10421024;28;20053;-76
2022/08/14 22:18:03;;;;;;;0.05;0.05;;;;;;;21.54;100.00;100352.56;10422035;28;20037;-76
2022/08/14 22:23:11;;;;;;;0.22;0.22;;;;;;;21.08;100.00;100358.16;10417939;28;20049;-77
2022/08/14 22:28:22;;;;;;;0.40;0.27;;;;;;;21.12;100.00;100337.97;10408227;28;20037;-77
2022/08/14 22:33:27;;;;;;;0.30;0.30;;;;;;;20.97;100.00;100343.63;10435513;28;20324;-79
2022/08/14 22:38:32;;;;;;;0.43;0.40;;;;;;;21.04;100.00;100350.41;10423849;28;20041;-78
2022/08/14 22:43:39;;;;;;;0.20;0.10;;;;;;;20.68;100.00;100353.06;10406041;28;20034;-78
2022/08/14 22:48:43;;;;;;;0.82;0.70;;;;;;;20.54;100.00;100351.66;10411004;28;20049;-78
2022/08/14 22:53:49;;;;;;;0.10;0.10;;;;;;;20.47;100.00;100354.47;10434462;28;20049;-78
2022/08/14 22:58:57;;;;;;;0.13;0.13;;;;;;;20.37;100.00;100348.56;10404878;28;20481;-78
2022/08/14 23:04:00;;;;;;;1.88;0.85;;;;;;;20.54;100.00;100346.41;10401833;28;20052;-78
2022/08/14 23:09:04;;;;;;;0.38;0.38;;;;;;;20.78;100.00;100338.88;10412457;28;20040;-80
2022/08/14 23:14:27;;;;;;;1.00;0.40;;;;;;;20.67;100.00;100340.88;10418924;28;20045;-79
2022/08/14 23:19:33;;;;;;;0.82;0.50;;;;;;;20.40;100.00;100332.81;10417958;28;20080;-78
2022/08/14 23:24:36;;;;;;;0.77;0.60;;;;;;;20.91;100.00;100315.88;10387958;28;20061;-78
2022/08/14 23:29:43;;;;;;;1.08;0.98;;;;;;;21.01;100.00;100313.84;10423452;28;20419;-79
2022/08/14 23:34:45;;;;;;;0.28;0.28;;;;;;;20.77;100.00;100313.59;10400486;28;20053;-78
2022/08/14 23:39:52;;;;;;;0.65;0.60;;;;;;;20.65;100.00;100313.88;10406714;28;20053;-78
2022/08/14 23:44:54;;;;;;;2.45;0.57;;;;;;;20.57;100.00;100303.59;10400260;28;20049;-78
2022/08/14 23:49:57;;;;;;;0.20;0.20;;;;;;;20.57;100.00;100294.00;10402256;28;20057;-78
2022/08/14 23:55:07;;;;;;;2.00;0.93;;;;;;;20.07;100.00;100296.06;10400675;28;20432;-78
